sensor_id;sensor_type;location;lat;lon;timestamp;P1;durP1;ratioP1;P2;durP2;ratioP2
44850;SDS011;30583;48.714;9.386;2023-05-16T00:00:07;9.65;;;8.13;;
44850;SDS011;30583;48.714;9.386;2023-05-16T00:02:34;12.95;;;8.05;;
44850;SDS011;30583;48.714;9.386;2023-05-16T00:05:01;9.93;;;7.90;;
44850;SDS011;30583;48.714;9.386;2023-05-16T00:07:28;10.38;;;8.20;;
44850;SDS011;30583;48.714;9.386;2023-05-16T00:09:54;10.57;;;7.72;;
44850;SDS011;30583;48.714;9.386;2023-05-16T00:12:20;10.52;;;7.75;;
44850;SDS011;30583;48.714;9.386;2023-05-16T00:14:47;8.93;;;7.53;;
44850;SDS011;30583;48.714;9.386;2023-05-16T00:17:14;10.05;;;7.90;;
44850;SDS011;30583;48.714;9.386;2023-05-16T00:19:41;11.40;;;7.53;;
44850;SDS011;30583;48.714;9.386;2023-05-16T00:22:08;8.55;;;7.57;;
44850;SDS011;30583;48.714;9.386;2023-05-16T00:24:35;10.10;;;8.27;;
44850;SDS011;30583;48.714;9.386;2023-05-16T00:27:01;11.13;;;7.97;;
44850;SDS011;30583;48.714;9.386;2023-05-16T00:29:28;10.57;;;8.15;;
44850;SDS011;30583;48.714;9.386;2023-05-16T00:31:56;10.18;;;8.05;;
44850;SDS011;30583;48.714;9.386;2023-05-16T00:34:22;11.65;;;9.15;;
44850;SDS011;30583;48.714;9.386;2023-05-16T00:36:51;8.10;;;7.30;;
44850;SDS011;30583;48.714;9.386;2023-05-16T00:39:17;11.82;;;7.78;;
44850;SDS011;30583;48.714;9.386;2023-05-16T00:41:43;9.70;;;7.63;;
44850;SDS011;30583;48.714;9.386;2023-05-16T00:44:09;8.93;;;7.63;;
44850;SDS011;30583;48.714;9.386;2023-05-16T00:46:34;9.38;;;7.93;;
44850;SDS011;30583;48.714;9.386;2023-05-16T00:49:00;10.95;;;7.85;;
44850;SDS011;30583;48.714;9.386;2023-05-16T00:51:26;10.30;;;7.68;;
44850;SDS011;30583;48.714;9.386;2023-05-16T00:53:52;10.05;;;8.40;;
44850;SDS011;30583;48.714;9.386;2023-05-16T00:56:18;9.50;;;7.90;;
44850;SDS011;30583;48.714;9.386;2023-05-16T00:58:45;11.02;;;8.38;;
44850;SDS011;30583;48.714;9.386;2023-05-16T01:01:11;11.55;;;7.45;;
44850;SDS011;30583;48.714;9.386;2023-05-16T01:03:37;8.02;;;7.22;;
44850;SDS011;30583;48.714;9.386;2023-05-16T01:06:03;8.45;;;7.55;;
44850;SDS011;30583;48.714;9.386;2023-05-16T01:08:29;10.43;;;7.38;;
44850;SDS011;30583;48.714;9.386;2023-05-16T01:11:07;9.40;;;7.43;;
44850;SDS011;30583;48.714;9.386;2023-05-16T01:13:45;9.75;;;7.72;;
44850;SDS011;30583;48.714;9.386;2023-05-16T01:16:36;10.60;;;8.02;;
44850;SDS011;30583;48.714;9.386;2023-05-16T01:25:11;9.85;;;8.13;;
44850;SDS011;30583;48.714;9.386;2023-05-16T01:27:56;9.85;;;8.18;;
44850;SDS011;30583;48.714;9.386;2023-05-16T01:30:23;9.68;;;8.68;;
44850;SDS011;30583;48.714;9.386;2023-05-16T01:32:49;13.18;;;8.45;;
44850;SDS011;30583;48.714;9.386;2023-05-16T01:35:15;10.55;;;8.57;;
44850;SDS011;30583;48.714;9.386;2023-05-16T01:40:21;10.15;;;8.15;;
44850;SDS011;30583;48.714;9.386;2023-05-16T01:42:53;13.93;;;9.55;;
44850;SDS011;30583;48.714;9.386;2023-05-16T01:45:25;10.75;;;8.27;;
44850;SDS011;30583;48.714;9.386;2023-05-16T01:48:12;10.63;;;8.55;;
44850;SDS011;30583;48.714;9.386;2023-05-16T01:50:44;10.35;;;8.27;;
44850;SDS011;30583;48.714;9.386;2023-05-16T01:53:14;9.65;;;8.32;;
44850;SDS011;30583;48.714;9.386;2023-05-16T01:55:52;9.57;;;7.63;;
44850;SDS011;30583;48.714;9.386;2023-05-16T01:58:21;9.25;;;7.75;;
44850;SDS011;30583;48.714;9.386;2023-05-16T02:00:51;10.48;;;8.00;;
44850;SDS011;30583;48.714;9.386;2023-05-16T02:03:17;12.40;;;8.27;;
44850;SDS011;30583;48.714;9.386;2023-05-16T02:05:43;11.45;;;8.05;;
44850;SDS011;30583;48.714;9.386;2023-05-16T02:08:09;9.45;;;7.75;;
44850;SDS011;30583;48.714;9.386;2023-05-16T02:10:34;10.15;;;7.63;;
44850;SDS011;30583;48.714;9.386;2023-05-16T02:13:00;10.30;;;7.88;;
44850;SDS011;30583;48.714;9.386;2023-05-16T02:15:25;9.90;;;7.82;;
44850;SDS011;30583;48.714;9.386;2023-05-16T02:17:51;11.63;;;8.10;;
44850;SDS011;30583;48.714;9.386;2023-05-16T02:20:17;8.80;;;7.90;;
44850;SDS011;30583;48.714;9.386;2023-05-16T02:22:42;9.20;;;7.15;;
44850;SDS011;30583;48.714;9.386;2023-05-16T02:25:11;11.40;;;7.57;;
44850;SDS011;30583;48.714;9.386;2023-05-16T02:27:36;12.13;;;7.03;;
44850;SDS011;30583;48.714;9.386;2023-05-16T02:30:02;8.02;;;6.90;;
44850;SDS011;30583;48.714;9.386;2023-05-16T02:32:29;9.77;;;7.28;;
44850;SDS011;30583;48.714;9.386;2023-05-16T02:34:55;10.10;;;7.30;;
44850;SDS011;30583;48.714;9.386;2023-05-16T02:37:21;10.60;;;7.68;;
44850;SDS011;30583;48.714;9.386;2023-05-16T02:39:46;9.93;;;7.82;;
44850;SDS011;30583;48.714;9.386;2023-05-16T02:42:12;9.90;;;8.40;;
44850;SDS011;30583;48.714;9.386;2023-05-16T02:44:38;9.82;;;7.00;;
44850;SDS011;30583;48.714;9.386;2023-05-16T02:47:03;9.40;;;7.55;;
44850;SDS011;30583;48.714;9.386;2023-05-16T02:49:29;10.40;;;8.40;;
44850;SDS011;30583;48.714;9.386;2023-05-16T02:51:55;13.00;;;8.68;;
44850;SDS011;30583;48.714;9.386;2023-05-16T02:54:20;12.45;;;8.50;;
44850;SDS011;30583;48.714;9.386;2023-05-16T02:56:46;10.38;;;7.20;;
44850;SDS011;30583;48.714;9.386;2023-05-16T02:59:11;11.35;;;8.52;;
44850;SDS011;30583;48.714;9.386;2023-05-16T03:01:37;9.80;;;8.20;;
44850;SDS011;30583;48.714;9.386;2023-05-16T03:04:03;9.35;;;7.60;;
44850;SDS011;30583;48.714;9.386;2023-05-16T03:06:28;10.63;;;7.88;;
44850;SDS011;30583;48.714;9.386;2023-05-16T03:08:56;11.38;;;8.00;;
44850;SDS011;30583;48.714;9.386;2023-05-16T03:11:22;9.85;;;8.13;;
44850;SDS011;30583;48.714;9.386;2023-05-16T03:13:49;8.85;;;7.28;;
44850;SDS011;30583;48.714;9.386;2023-05-16T03:16:15;10.10;;;7.78;;
44850;SDS011;30583;48.714;9.386;2023-05-16T03:18:41;9.52;;;8.05;;
44850;SDS011;30583;48.714;9.386;2023-05-16T03:21:07;9.23;;;7.57;;
44850;SDS011;30583;48.714;9.386;2023-05-16T03:23:32;9.52;;;7.97;;
44850;SDS011;30583;48.714;9.386;2023-05-16T03:25:58;8.82;;;7.65;;
44850;SDS011;30583;48.714;9.386;2023-05-16T03:28:24;10.20;;;8.02;;
44850;SDS011;30583;48.714;9.386;2023-05-16T03:30:51;9.73;;;7.65;;
44850;SDS011;30583;48.714;9.386;2023-05-16T03:33:17;8.93;;;7.80;;
44850;SDS011;30583;48.714;9.386;2023-05-16T03:35:43;9.45;;;7.82;;
44850;SDS011;30583;48.714;9.386;2023-05-16T03:38:09;11.02;;;8.32;;
44850;SDS011;30583;48.714;9.386;2023-05-16T03:40:35;11.68;;;7.90;;
44850;SDS011;30583;48.714;9.386;2023-05-16T03:43:00;10.73;;;8.10;;
44850;SDS011;30583;48.714;9.386;2023-05-16T03:45:26;8.95;;;7.75;;
44850;SDS011;30583;48.714;9.386;2023-05-16T03:47:51;12.98;;;7.90;;
44850;SDS011;30583;48.714;9.386;2023-05-16T03:50:17;11.93;;;8.30;;
44850;SDS011;30583;48.714;9.386;2023-05-16T03:52:43;9.82;;;7.65;;
44850;SDS011;30583;48.714;9.386;2023-05-16T03:55:08;9.85;;;7.85;;
44850;SDS011;30583;48.714;9.386;2023-05-16T03:57:35;12.30;;;8.30;;
44850;SDS011;30583;48.714;9.386;2023-05-16T04:00:02;8.80;;;7.90;;
44850;SDS011;30583;48.714;9.386;2023-05-16T04:02:31;13.02;;;7.70;;
44850;SDS011;30583;48.714;9.386;2023-05-16T04:04:57;11.45;;;7.70;;
44850;SDS011;30583;48.714;9.386;2023-05-16T04:07:23;11.30;;;7.30;;
44850;SDS011;30583;48.714;9.386;2023-05-16T04:09:48;9.57;;;7.53;;
44850;SDS011;30583;48.714;9.386;2023-05-16T04:12:15;12.43;;;8.23;;
44850;SDS011;30583;48.714;9.386;2023-05-16T04:14:41;14.32;;;9.65;;
44850;SDS011;30583;48.714;9.386;2023-05-16T04:17:06;12.77;;;9.05;;
44850;SDS011;30583;48.714;9.386;2023-05-16T04:19:32;10.35;;;8.02;;
44850;SDS011;30583;48.714;9.386;2023-05-16T04:21:57;10.75;;;8.10;;
44850;SDS011;30583;48.714;9.386;2023-05-16T04:24:23;10.32;;;8.30;;
44850;SDS011;30583;48.714;9.386;2023-05-16T04:26:50;9.18;;;7.13;;
44850;SDS011;30583;48.714;9.386;2023-05-16T04:29:16;9.30;;;6.40;;
44850;SDS011;30583;48.714;9.386;2023-05-16T04:31:42;9.98;;;7.55;;
44850;SDS011;30583;48.714;9.386;2023-05-16T04:34:07;10.00;;;7.45;;
44850;SDS011;30583;48.714;9.386;2023-05-16T04:36:33;11.20;;;8.00;;
44850;SDS011;30583;48.714;9.386;2023-05-16T04:38:59;12.43;;;7.65;;
44850;SDS011;30583;48.714;9.386;2023-05-16T04:41:25;10.23;;;8.20;;
44850;SDS011;30583;48.714;9.386;2023-05-16T04:43:50;10.00;;;7.82;;
44850;SDS011;30583;48.714;9.386;2023-05-16T04:46:17;9.23;;;7.60;;
44850;SDS011;30583;48.714;9.386;2023-05-16T04:48:44;10.35;;;7.63;;
44850;SDS011;30583;48.714;9.386;2023-05-16T04:51:10;14.02;;;8.13;;
44850;SDS011;30583;48.714;9.386;2023-05-16T04:53:36;12.40;;;8.63;;
44850;SDS011;30583;48.714;9.386;2023-05-16T04:56:01;10.90;;;8.30;;
44850;SDS011;30583;48.714;9.386;2023-05-16T04:58:29;11.32;;;8.45;;
44850;SDS011;30583;48.714;9.386;2023-05-16T05:00:54;11.85;;;9.25;;
44850;SDS011;30583;48.714;9.386;2023-05-16T05:03:20;12.32;;;9.55;;
44850;SDS011;30583;48.714;9.386;2023-05-16T05:05:46;16.50;;;9.32;;
44850;SDS011;30583;48.714;9.386;2023-05-16T05:08:12;13.85;;;9.90;;
44850;SDS011;30583;48.714;9.386;2023-05-16T05:10:38;10.95;;;8.77;;
44850;SDS011;30583;48.714;9.386;2023-05-16T05:13:04;12.10;;;8.88;;
44850;SDS011;30583;48.714;9.386;2023-05-16T05:15:30;14.20;;;9.57;;
44850;SDS011;30583;48.714;9.386;2023-05-16T05:17:55;15.85;;;12.18;;
44850;SDS011;30583;48.714;9.386;2023-05-16T05:20:21;14.05;;;10.65;;
44850;SDS011;30583;48.714;9.386;2023-05-16T05:22:47;14.52;;;10.48;;
44850;SDS011;30583;48.714;9.386;2023-05-16T05:25:13;18.77;;;10.35;;
44850;SDS011;30583;48.714;9.386;2023-05-16T05:27:38;16.90;;;12.55;;
44850;SDS011;30583;48.714;9.386;2023-05-16T05:30:04;19.02;;;12.13;;
44850;SDS011;30583;48.714;9.386;2023-05-16T05:32:30;16.35;;;11.70;;
44850;SDS011;30583;48.714;9.386;2023-05-16T05:34:56;14.63;;;12.05;;
44850;SDS011;30583;48.714;9.386;2023-05-16T05:37:22;16.13;;;12.32;;
44850;SDS011;30583;48.714;9.386;2023-05-16T05:39:47;19.40;;;13.38;;
44850;SDS011;30583;48.714;9.386;2023-05-16T05:42:13;21.95;;;13.70;;
44850;SDS011;30583;48.714;9.386;2023-05-16T05:44:39;20.05;;;13.10;;
44850;SDS011;30583;48.714;9.386;2023-05-16T05:47:05;22.67;;;15.55;;
44850;SDS011;30583;48.714;9.386;2023-05-16T05:49:31;23.17;;;16.25;;
44850;SDS011;30583;48.714;9.386;2023-05-16T05:51:57;23.13;;;16.15;;
44850;SDS011;30583;48.714;9.386;2023-05-16T05:54:23;29.38;;;19.88;;
44850;SDS011;30583;48.714;9.386;2023-05-16T05:56:49;30.77;;;21.35;;
44850;SDS011;30583;48.714;9.386;2023-05-16T05:59:14;37.75;;;25.25;;
44850;SDS011;30583;48.714;9.386;2023-05-16T06:01:40;36.20;;;25.48;;
44850;SDS011;30583;48.714;9.386;2023-05-16T06:04:07;42.47;;;28.17;;
44850;SDS011;30583;48.714;9.386;2023-05-16T06:06:33;44.72;;;27.58;;
44850;SDS011;30583;48.714;9.386;2023-05-16T06:08:59;42.53;;;28.35;;
44850;SDS011;30583;48.714;9.386;2023-05-16T06:11:24;42.50;;;26.98;;
44850;SDS011;30583;48.714;9.386;2023-05-16T06:13:50;39.95;;;27.33;;
44850;SDS011;30583;48.714;9.386;2023-05-16T06:16:16;38.28;;;27.17;;
44850;SDS011;30583;48.714;9.386;2023-05-16T06:18:42;39.47;;;27.13;;
44850;SDS011;30583;48.714;9.386;2023-05-16T06:21:07;37.20;;;26.75;;
44850;SDS011;30583;48.714;9.386;2023-05-16T06:23:33;40.15;;;27.63;;
44850;SDS011;30583;48.714;9.386;2023-05-16T06:26:00;39.50;;;26.67;;
44850;SDS011;30583;48.714;9.386;2023-05-16T06:28:26;41.38;;;26.90;;
44850;SDS011;30583;48.714;9.386;2023-05-16T06:30:52;36.72;;;25.40;;
44850;SDS011;30583;48.714;9.386;2023-05-16T06:33:18;35.60;;;25.40;;
44850;SDS011;30583;48.714;9.386;2023-05-16T06:35:44;36.40;;;25.63;;
44850;SDS011;30583;48.714;9.386;2023-05-16T06:38:10;36.10;;;24.80;;
44850;SDS011;30583;48.714;9.386;2023-05-16T06:40:35;35.95;;;24.75;;
44850;SDS011;30583;48.714;9.386;2023-05-16T06:43:01;34.55;;;24.20;;
44850;SDS011;30583;48.714;9.386;2023-05-16T06:45:27;33.47;;;24.08;;
44850;SDS011;30583;48.714;9.386;2023-05-16T06:47:53;31.52;;;22.45;;
44850;SDS011;30583;48.714;9.386;2023-05-16T06:50:19;36.35;;;24.45;;
44850;SDS011;30583;48.714;9.386;2023-05-16T06:52:45;34.03;;;23.63;;
44850;SDS011;30583;48.714;9.386;2023-05-16T06:55:11;35.40;;;24.58;;
44850;SDS011;30583;48.714;9.386;2023-05-16T06:57:36;29.35;;;21.85;;
44850;SDS011;30583;48.714;9.386;2023-05-16T07:00:02;29.88;;;21.80;;
44850;SDS011;30583;48.714;9.386;2023-05-16T07:02:28;29.33;;;21.30;;
44850;SDS011;30583;48.714;9.386;2023-05-16T07:04:54;31.33;;;23.40;;
44850;SDS011;30583;48.714;9.386;2023-05-16T07:07:19;30.40;;;21.45;;
44850;SDS011;30583;48.714;9.386;2023-05-16T07:09:45;32.67;;;23.00;;
44850;SDS011;30583;48.714;9.386;2023-05-16T07:12:10;23.92;;;16.77;;
44850;SDS011;30583;48.714;9.386;2023-05-16T07:14:36;22.67;;;17.58;;
44850;SDS011;30583;48.714;9.386;2023-05-16T07:17:01;25.02;;;18.35;;
44850;SDS011;30583;48.714;9.386;2023-05-16T07:19:27;24.33;;;18.60;;
44850;SDS011;30583;48.714;9.386;2023-05-16T07:21:53;27.25;;;19.55;;
44850;SDS011;30583;48.714;9.386;2023-05-16T07:24:18;25.27;;;18.58;;
44850;SDS011;30583;48.714;9.386;2023-05-16T07:26:44;25.58;;;18.67;;
44850;SDS011;30583;48.714;9.386;2023-05-16T07:29:09;23.27;;;18.13;;
44850;SDS011;30583;48.714;9.386;2023-05-16T07:31:35;25.80;;;18.60;;
44850;SDS011;30583;48.714;9.386;2023-05-16T07:34:01;27.45;;;18.75;;
44850;SDS011;30583;48.714;9.386;2023-05-16T07:36:26;26.10;;;18.83;;
44850;SDS011;30583;48.714;9.386;2023-05-16T07:38:52;22.95;;;17.30;;
44850;SDS011;30583;48.714;9.386;2023-05-16T07:41:18;22.42;;;16.77;;
44850;SDS011;30583;48.714;9.386;2023-05-16T07:43:43;23.30;;;17.50;;
44850;SDS011;30583;48.714;9.386;2023-05-16T07:46:09;21.90;;;16.10;;
44850;SDS011;30583;48.714;9.386;2023-05-16T07:48:35;24.20;;;17.05;;
44850;SDS011;30583;48.714;9.386;2023-05-16T07:51:01;23.52;;;15.18;;
44850;SDS011;30583;48.714;9.386;2023-05-16T07:53:26;20.85;;;14.73;;
44850;SDS011;30583;48.714;9.386;2023-05-16T07:55:52;19.27;;;14.18;;
44850;SDS011;30583;48.714;9.386;2023-05-16T07:58:17;19.52;;;13.70;;
44850;SDS011;30583;48.714;9.386;2023-05-16T08:00:43;19.05;;;13.57;;
44850;SDS011;30583;48.714;9.386;2023-05-16T08:03:09;19.15;;;12.98;;
44850;SDS011;30583;48.714;9.386;2023-05-16T08:05:35;18.10;;;13.30;;
44850;SDS011;30583;48.714;9.386;2023-05-16T08:08:00;17.52;;;12.80;;
44850;SDS011;30583;48.714;9.386;2023-05-16T08:10:26;16.88;;;12.77;;
44850;SDS011;30583;48.714;9.386;2023-05-16T08:12:52;18.17;;;13.10;;
44850;SDS011;30583;48.714;9.386;2023-05-16T08:15:17;19.63;;;13.27;;
44850;SDS011;30583;48.714;9.386;2023-05-16T08:17:43;17.65;;;13.18;;
44850;SDS011;30583;48.714;9.386;2023-05-16T08:20:09;15.88;;;12.23;;
44850;SDS011;30583;48.714;9.386;2023-05-16T08:22:35;15.95;;;12.85;;
44850;SDS011;30583;48.714;9.386;2023-05-16T08:25:00;19.10;;;14.13;;
44850;SDS011;30583;48.714;9.386;2023-05-16T08:27:26;19.60;;;14.48;;
44850;SDS011;30583;48.714;9.386;2023-05-16T08:29:52;20.27;;;14.70;;
44850;SDS011;30583;48.714;9.386;2023-05-16T08:32:18;18.65;;;13.88;;
44850;SDS011;30583;48.714;9.386;2023-05-16T08:34:45;19.90;;;14.88;;
44850;SDS011;30583;48.714;9.386;2023-05-16T08:37:10;18.38;;;15.25;;
44850;SDS011;30583;48.714;9.386;2023-05-16T08:39:39;16.90;;;13.13;;
44850;SDS011;30583;48.714;9.386;2023-05-16T08:42:05;19.20;;;14.18;;
44850;SDS011;30583;48.714;9.386;2023-05-16T08:44:31;18.00;;;13.65;;
44850;SDS011;30583;48.714;9.386;2023-05-16T08:46:59;18.13;;;13.80;;
44850;SDS011;30583;48.714;9.386;2023-05-16T08:49:50;18.30;;;14.40;;
44850;SDS011;30583;48.714;9.386;2023-05-16T08:52:19;19.33;;;13.48;;
44850;SDS011;30583;48.714;9.386;2023-05-16T08:54:48;18.85;;;13.43;;
44850;SDS011;30583;48.714;9.386;2023-05-16T08:57:15;17.90;;;13.93;;
44850;SDS011;30583;48.714;9.386;2023-05-16T08:59:41;38.97;;;26.88;;
44850;SDS011;30583;48.714;9.386;2023-05-16T09:02:07;24.73;;;18.35;;
44850;SDS011;30583;48.714;9.386;2023-05-16T09:04:33;18.45;;;13.38;;
44850;SDS011;30583;48.714;9.386;2023-05-16T09:07:01;17.35;;;13.13;;
44850;SDS011;30583;48.714;9.386;2023-05-16T09:09:26;17.13;;;12.48;;
44850;SDS011;30583;48.714;9.386;2023-05-16T09:11:52;16.13;;;12.93;;
44850;SDS011;30583;48.714;9.386;2023-05-16T09:14:17;28.38;;;19.10;;
44850;SDS011;30583;48.714;9.386;2023-05-16T09:16:44;28.80;;;20.45;;
44850;SDS011;30583;48.714;9.386;2023-05-16T09:19:11;17.63;;;13.65;;
44850;SDS011;30583;48.714;9.386;2023-05-16T09:21:37;15.77;;;12.23;;
44850;SDS011;30583;48.714;9.386;2023-05-16T09:24:05;16.08;;;12.18;;
44850;SDS011;30583;48.714;9.386;2023-05-16T09:26:32;18.00;;;12.02;;
44850;SDS011;30583;48.714;9.386;2023-05-16T09:28:59;15.27;;;11.68;;
44850;SDS011;30583;48.714;9.386;2023-05-16T09:31:26;18.42;;;12.13;;
44850;SDS011;30583;48.714;9.386;2023-05-16T09:34:01;16.80;;;12.30;;
44850;SDS011;30583;48.714;9.386;2023-05-16T09:36:28;14.60;;;11.95;;
44850;SDS011;30583;48.714;9.386;2023-05-16T09:38:56;17.17;;;11.90;;
44850;SDS011;30583;48.714;9.386;2023-05-16T09:41:21;15.02;;;11.50;;
44850;SDS011;30583;48.714;9.386;2023-05-16T09:43:47;17.55;;;12.90;;
44850;SDS011;30583;48.714;9.386;2023-05-16T09:46:13;17.23;;;13.50;;
44850;SDS011;30583;48.714;9.386;2023-05-16T09:48:40;15.77;;;12.75;;
44850;SDS011;30583;48.714;9.386;2023-05-16T09:51:10;40.92;;;20.55;;
44850;SDS011;30583;48.714;9.386;2023-05-16T09:53:37;23.55;;;17.35;;
44850;SDS011;30583;48.714;9.386;2023-05-16T09:58:36;17.75;;;13.80;;
44850;SDS011;30583;48.714;9.386;2023-05-16T10:01:03;19.67;;;14.27;;
44850;SDS011;30583;48.714;9.386;2023-05-16T10:03:32;18.88;;;13.63;;
44850;SDS011;30583;48.714;9.386;2023-05-16T10:05:59;18.25;;;13.10;;
44850;SDS011;30583;48.714;9.386;2023-05-16T10:08:26;16.55;;;12.20;;
44850;SDS011;30583;48.714;9.386;2023-05-16T10:10:55;19.50;;;13.77;;
44850;SDS011;30583;48.714;9.386;2023-05-16T10:13:22;19.13;;;14.13;;
44850;SDS011;30583;48.714;9.386;2023-05-16T10:15:49;20.30;;;15.10;;
44850;SDS011;30583;48.714;9.386;2023-05-16T10:18:20;21.25;;;15.48;;
44850;SDS011;30583;48.714;9.386;2023-05-16T10:20:47;20.50;;;14.90;;
44850;SDS011;30583;48.714;9.386;2023-05-16T10:23:19;21.13;;;15.20;;
44850;SDS011;30583;48.714;9.386;2023-05-16T10:25:46;21.63;;;15.27;;
44850;SDS011;30583;48.714;9.386;2023-05-16T10:28:13;19.52;;;14.25;;
44850;SDS011;30583;48.714;9.386;2023-05-16T10:30:41;19.90;;;15.30;;
44850;SDS011;30583;48.714;9.386;2023-05-16T10:33:09;21.75;;;15.63;;
44850;SDS011;30583;48.714;9.386;2023-05-16T10:35:43;20.17;;;15.10;;
44850;SDS011;30583;48.714;9.386;2023-05-16T10:38:09;20.23;;;16.17;;
44850;SDS011;30583;48.714;9.386;2023-05-16T10:40:39;27.33;;;17.27;;
44850;SDS011;30583;48.714;9.386;2023-05-16T10:43:06;21.58;;;15.70;;
44850;SDS011;30583;48.714;9.386;2023-05-16T10:45:32;23.48;;;16.58;;
44850;SDS011;30583;48.714;9.386;2023-05-16T10:48:00;21.98;;;16.50;;
44850;SDS011;30583;48.714;9.386;2023-05-16T10:53:15;23.67;;;16.80;;
44850;SDS011;30583;48.714;9.386;2023-05-16T10:55:44;24.35;;;16.63;;
44850;SDS011;30583;48.714;9.386;2023-05-16T10:58:17;21.83;;;15.68;;
44850;SDS011;30583;48.714;9.386;2023-05-16T11:00:47;22.23;;;16.10;;
44850;SDS011;30583;48.714;9.386;2023-05-16T11:03:21;22.52;;;16.88;;
44850;SDS011;30583;48.714;9.386;2023-05-16T11:05:52;23.15;;;15.60;;
44850;SDS011;30583;48.714;9.386;2023-05-16T11:08:18;23.13;;;16.20;;
44850;SDS011;30583;48.714;9.386;2023-05-16T11:10:43;23.75;;;15.80;;
44850;SDS011;30583;48.714;9.386;2023-05-16T11:13:09;26.27;;;18.13;;
44850;SDS011;30583;48.714;9.386;2023-05-16T11:15:35;23.63;;;16.30;;
44850;SDS011;30583;48.714;9.386;2023-05-16T11:18:14;23.15;;;16.13;;
44850;SDS011;30583;48.714;9.386;2023-05-16T11:20:40;25.55;;;16.17;;
44850;SDS011;30583;48.714;9.386;2023-05-16T11:25:46;21.00;;;14.57;;
44850;SDS011;30583;48.714;9.386;2023-05-16T11:28:26;25.00;;;15.93;;
44850;SDS011;30583;48.714;9.386;2023-05-16T11:30:52;20.42;;;14.95;;
44850;SDS011;30583;48.714;9.386;2023-05-16T11:33:21;21.88;;;16.52;;
44850;SDS011;30583;48.714;9.386;2023-05-16T11:36:07;21.35;;;14.95;;
44850;SDS011;30583;48.714;9.386;2023-05-16T11:38:33;20.52;;;15.50;;
44850;SDS011;30583;48.714;9.386;2023-05-16T11:41:06;23.90;;;15.20;;
44850;SDS011;30583;48.714;9.386;2023-05-16T11:43:43;22.23;;;14.48;;
44850;SDS011;30583;48.714;9.386;2023-05-16T11:46:10;21.63;;;15.63;;
44850;SDS011;30583;48.714;9.386;2023-05-16T11:48:36;21.08;;;15.52;;
44850;SDS011;30583;48.714;9.386;2023-05-16T11:51:02;20.70;;;14.93;;
44850;SDS011;30583;48.714;9.386;2023-05-16T11:53:28;20.85;;;13.63;;
44850;SDS011;30583;48.714;9.386;2023-05-16T11:55:53;20.17;;;14.73;;
44850;SDS011;30583;48.714;9.386;2023-05-16T11:58:19;20.27;;;14.57;;
44850;SDS011;30583;48.714;9.386;2023-05-16T12:00:49;20.35;;;14.82;;
44850;SDS011;30583;48.714;9.386;2023-05-16T12:03:16;23.25;;;14.95;;
44850;SDS011;30583;48.714;9.386;2023-05-16T12:05:50;18.42;;;13.38;;
44850;SDS011;30583;48.714;9.386;2023-05-16T12:08:19;25.80;;;18.73;;
44850;SDS011;30583;48.714;9.386;2023-05-16T12:10:47;16.85;;;12.48;;
44850;SDS011;30583;48.714;9.386;2023-05-16T12:13:14;20.65;;;13.55;;
44850;SDS011;30583;48.714;9.386;2023-05-16T12:15:40;23.30;;;15.02;;
44850;SDS011;30583;48.714;9.386;2023-05-16T12:18:07;18.25;;;11.70;;
44850;SDS011;30583;48.714;9.386;2023-05-16T12:20:33;16.02;;;10.98;;
44850;SDS011;30583;48.714;9.386;2023-05-16T12:22:58;15.55;;;11.48;;
44850;SDS011;30583;48.714;9.386;2023-05-16T12:25:28;15.48;;;10.30;;
44850;SDS011;30583;48.714;9.386;2023-05-16T12:28:02;15.85;;;11.35;;
44850;SDS011;30583;48.714;9.386;2023-05-16T12:30:29;16.45;;;12.00;;
44850;SDS011;30583;48.714;9.386;2023-05-16T12:35:33;15.27;;;11.30;;
44850;SDS011;30583;48.714;9.386;2023-05-16T12:38:03;15.23;;;11.27;;
44850;SDS011;30583;48.714;9.386;2023-05-16T12:40:29;14.55;;;10.68;;
44850;SDS011;30583;48.714;9.386;2023-05-16T12:42:55;16.80;;;11.48;;
44850;SDS011;30583;48.714;9.386;2023-05-16T12:45:21;16.33;;;11.60;;
44850;SDS011;30583;48.714;9.386;2023-05-16T12:47:47;14.60;;;11.30;;
44850;SDS011;30583;48.714;9.386;2023-05-16T12:50:14;15.98;;;12.35;;
44850;SDS011;30583;48.714;9.386;2023-05-16T12:52:49;15.88;;;10.38;;
44850;SDS011;30583;48.714;9.386;2023-05-16T12:55:17;16.35;;;9.48;;
44850;SDS011;30583;48.714;9.386;2023-05-16T12:57:43;14.02;;;10.27;;
44850;SDS011;30583;48.714;9.386;2023-05-16T13:00:11;13.23;;;9.85;;
44850;SDS011;30583;48.714;9.386;2023-05-16T13:02:38;12.88;;;9.02;;
44850;SDS011;30583;48.714;9.386;2023-05-16T13:05:04;13.52;;;9.82;;
44850;SDS011;30583;48.714;9.386;2023-05-16T13:07:34;12.32;;;9.73;;
44850;SDS011;30583;48.714;9.386;2023-05-16T13:10:00;13.85;;;10.50;;
44850;SDS011;30583;48.714;9.386;2023-05-16T13:12:26;13.45;;;9.43;;
44850;SDS011;30583;48.714;9.386;2023-05-16T13:14:52;12.85;;;9.15;;
44850;SDS011;30583;48.714;9.386;2023-05-16T13:17:18;12.50;;;8.77;;
44850;SDS011;30583;48.714;9.386;2023-05-16T13:19:43;10.55;;;8.27;;
44850;SDS011;30583;48.714;9.386;2023-05-16T13:22:09;10.02;;;7.85;;
44850;SDS011;30583;48.714;9.386;2023-05-16T13:24:35;11.05;;;6.97;;
44850;SDS011;30583;48.714;9.386;2023-05-16T13:27:01;9.82;;;7.50;;
44850;SDS011;30583;48.714;9.386;2023-05-16T13:29:27;6.80;;;4.28;;
44850;SDS011;30583;48.714;9.386;2023-05-16T13:31:52;8.43;;;5.63;;
44850;SDS011;30583;48.714;9.386;2023-05-16T13:34:18;7.63;;;5.18;;
44850;SDS011;30583;48.714;9.386;2023-05-16T13:36:43;6.90;;;5.47;;
44850;SDS011;30583;48.714;9.386;2023-05-16T13:39:12;9.20;;;5.72;;
44850;SDS011;30583;48.714;9.386;2023-05-16T13:41:38;7.03;;;4.97;;
44850;SDS011;30583;48.714;9.386;2023-05-16T13:44:05;7.25;;;5.60;;
44850;SDS011;30583;48.714;9.386;2023-05-16T13:46:30;8.25;;;5.45;;
44850;SDS011;30583;48.714;9.386;2023-05-16T13:48:56;8.85;;;5.18;;
44850;SDS011;30583;48.714;9.386;2023-05-16T13:51:22;6.40;;;4.82;;
44850;SDS011;30583;48.714;9.386;2023-05-16T13:53:47;6.43;;;4.65;;
44850;SDS011;30583;48.714;9.386;2023-05-16T13:56:13;7.22;;;4.65;;
44850;SDS011;30583;48.714;9.386;2023-05-16T13:58:39;6.22;;;4.55;;
44850;SDS011;30583;48.714;9.386;2023-05-16T14:01:04;6.55;;;4.18;;
44850;SDS011;30583;48.714;9.386;2023-05-16T14:03:30;6.72;;;4.97;;
44850;SDS011;30583;48.714;9.386;2023-05-16T14:05:56;5.47;;;4.20;;
44850;SDS011;30583;48.714;9.386;2023-05-16T14:08:21;7.85;;;4.38;;
44850;SDS011;30583;48.714;9.386;2023-05-16T14:10:47;6.55;;;4.30;;
44850;SDS011;30583;48.714;9.386;2023-05-16T14:13:13;8.85;;;6.10;;
44850;SDS011;30583;48.714;9.386;2023-05-16T14:15:38;6.43;;;4.80;;
44850;SDS011;30583;48.714;9.386;2023-05-16T14:18:04;14.13;;;9.55;;
44850;SDS011;30583;48.714;9.386;2023-05-16T14:20:30;6.15;;;4.32;;
44850;SDS011;30583;48.714;9.386;2023-05-16T14:22:55;7.03;;;3.78;;
44850;SDS011;30583;48.714;9.386;2023-05-16T14:25:21;5.75;;;4.10;;
44850;SDS011;30583;48.714;9.386;2023-05-16T14:27:47;6.63;;;2.92;;
44850;SDS011;30583;48.714;9.386;2023-05-16T14:30:14;5.00;;;3.50;;
44850;SDS011;30583;48.714;9.386;2023-05-16T14:32:40;8.15;;;3.72;;
44850;SDS011;30583;48.714;9.386;2023-05-16T14:35:06;5.72;;;3.45;;
44850;SDS011;30583;48.714;9.386;2023-05-16T14:37:33;4.78;;;3.75;;
44850;SDS011;30583;48.714;9.386;2023-05-16T14:39:59;5.50;;;3.85;;
44850;SDS011;30583;48.714;9.386;2023-05-16T14:42:24;5.63;;;3.67;;
44850;SDS011;30583;48.714;9.386;2023-05-16T14:44:50;5.75;;;3.58;;
44850;SDS011;30583;48.714;9.386;2023-05-16T14:47:16;6.40;;;3.60;;